Time;durP1;ratioP1;P1;durP2;ratioP2;P2;SDS_P1;SDS_P2;PMS_P1;PMS_P2;Temp;Humidity;BMP_temperature;BMP_pressure;BME280_temperature;BME280_humidity;BME280_pressure;Samples;Min_cycle;Max_cycle;Signal;HPM_P1;HPM_P2
2022/09/27 00:00:45;;;;;;;1.07;0.60;;;13.00;99.90;;;;;;7395727;19;20153;-84
2022/09/27 00:03:11;;;;;;;0.83;0.50;;;13.00;99.90;;;;;;7394074;19;20142;-86
2022/09/27 00:05:38;;;;;;;0.73;0.63;;;13.20;99.90;;;;;;7397572;19;20202;-85
2022/09/27 00:08:03;;;;;;;0.60;0.57;;;13.20;99.90;;;;;;7404510;19;20142;-87
2022/09/27 00:10:30;;;;;;;0.90;0.60;;;13.40;99.90;;;;;;7399840;19;20138;-85
2022/09/27 00:12:57;;;;;;;0.70;0.70;;;13.40;99.90;;;;;;7399131;19;20142;-87
2022/09/27 00:15:23;;;;;;;0.50;0.50;;;13.40;99.90;;;;;;7401720;19;20159;-87
2022/09/27 00:17:50;;;;;;;2.30;0.60;;;13.30;99.90;;;;;;7395635;19;20489;-85
2022/09/27 00:20:18;;;;;;;3.27;0.70;;;13.40;99.90;;;;;;7397665;19;20143;-87
2022/09/27 00:22:47;;;;;;;0.50;0.50;;;13.40;99.90;;;;;;7396940;19;20146;-86
2022/09/27 00:25:13;;;;;;;0.63;0.50;;;13.30;99.90;;;;;;7394892;19;20150;-85
2022/09/27 00:27:39;;;;;;;1.00;0.57;;;13.30;99.90;;;;;;7393006;19;20134;-87
2022/09/27 00:30:05;;;;;;;1.17;0.70;;;13.20;99.90;;;;;;7393500;19;20175;-86
2022/09/27 00:32:31;;;;;;;0.93;0.60;;;13.20;99.90;;;;;;7394292;19;20162;-87
2022/09/27 00:34:58;;;;;;;0.50;0.50;;;13.10;99.90;;;;;;7396068;19;20131;-88
2022/09/27 00:37:26;;;;;;;0.80;0.50;;;13.10;99.90;;;;;;7394275;19;20588;-86
2022/09/27 00:39:52;;;;;;;0.93;0.50;;;13.10;99.90;;;;;;7397262;19;20154;-87
2022/09/27 00:42:17;;;;;;;2.40;0.47;;;13.20;99.90;;;;;;7394816;19;20154;-85
2022/09/27 00:45:00;;;;;;;1.40;0.40;;;13.30;99.90;;;;;;7394168;19;20138;-86
2022/09/27 00:47:35;;;;;;;0.80;0.50;;;13.30;99.90;;;;;;7394828;19;20494;-86
2022/09/27 00:50:22;;;;;;;0.50;0.50;;;13.20;99.90;;;;;;7395682;19;20134;-87
2022/09/27 00:53:06;;;;;;;0.80;0.50;;;13.20;99.90;;;;;;7393863;19;20652;-86
2022/09/27 00:55:39;;;;;;;0.30;0.30;;;13.20;99.90;;;;;;7393474;19;20483;-87
2022/09/27 00:58:05;;;;;;;0.63;0.37;;;13.20;99.90;;;;;;7394482;19;20127;-87
2022/09/27 01:00:31;;;;;;;1.17;0.65;;;13.10;99.90;;;;;;7392544;19;20600;-87
2022/09/27 01:02:59;;;;;;;1.90;0.57;;;13.10;99.90;;;;;;7393330;19;20160;-86
2022/09/27 01:05:27;;;;;;;2.10;0.60;;;13.10;99.90;;;;;;7392904;19;20154;-86
2022/09/27 01:07:59;;;;;;;0.67;0.50;;;13.20;99.90;;;;;;7401383;19;20156;-83
2022/09/27 01:10:30;;;;;;;0.40;0.40;;;13.30;99.90;;;;;;7400761;19;20154;-88
2022/09/27 01:13:31;;;;;;;0.50;0.50;;;13.20;99.90;;;;;;7398713;19;20155;-86
2022/09/27 01:16:09;;;;;;;0.63;0.50;;;13.20;99.90;;;;;;7398147;19;20142;-86
2022/09/27 01:18:43;;;;;;;1.50;0.40;;;13.30;99.90;;;;;;7400152;19;20146;-86
2022/09/27 01:21:20;;;;;;;0.67;0.50;;;13.30;99.90;;;;;;7398460;19;20566;-86
2022/09/27 01:24:18;;;;;;;0.40;0.40;;;13.30;99.90;;;;;;7400003;19;20138;-87
2022/09/27 01:27:08;;;;;;;1.07;0.53;;;13.20;99.90;;;;;;7396954;19;20460;-86
2022/09/27 01:30:15;;;;;;;0.90;0.60;;;13.30;99.90;;;;;;7399446;19;20138;-85
2022/09/27 01:33:28;;;;;;;0.60;0.40;;;13.20;99.90;;;;;;7395416;19;20142;-86
2022/09/27 01:35:57;;;;;;;0.90;0.50;;;13.20;99.90;;;;;;7397135;19;20154;-84
2022/09/27 01:38:45;;;;;;;0.43;0.40;;;13.30;99.90;;;;;;7400786;19;20156;-86
2022/09/27 01:41:48;;;;;;;0.50;0.50;;;13.20;99.90;;;;;;7398474;19;20135;-85
2022/09/27 01:44:29;;;;;;;0.50;0.50;;;13.40;99.90;;;;;;7398688;19;20214;-84
2022/09/27 01:47:02;;;;;;;0.53;0.40;;;13.50;99.90;;;;;;7397068;19;20165;-83
2022/09/27 01:50:10;;;;;;;1.10;0.60;;;13.50;99.90;;;;;;7399383;19;20151;-86
2022/09/27 01:52:40;;;;;;;1.37;0.50;;;13.40;99.90;;;;;;7395375;19;20597;-86
2022/09/27 01:55:12;;;;;;;1.17;0.40;;;13.30;99.90;;;;;;7394603;19;20175;-85
2022/09/27 01:57:42;;;;;;;0.57;0.50;;;13.30;99.90;;;;;;7394134;19;20171;-87
2022/09/27 02:00:10;;;;;;;0.30;0.30;;;13.40;99.90;;;;;;7397294;19;20488;-86
2022/09/27 02:02:42;;;;;;;0.85;0.57;;;13.40;99.90;;;;;;7395729;19;20145;-85
2022/09/27 02:05:13;;;;;;;0.97;0.40;;;13.40;99.90;;;;;;7398531;19;20131;-84
2022/09/27 02:07:55;;;;;;;1.93;0.40;;;13.40;99.90;;;;;;7398947;19;20191;-85
2022/09/27 02:10:30;;;;;;;0.47;0.30;;;13.50;99.90;;;;;;7397880;19;20146;-85
2022/09/27 02:13:30;;;;;;;1.70;0.40;;;13.60;99.90;;;;;;7397679;19;20157;-85
2022/09/27 02:16:22;;;;;;;2.90;0.43;;;13.50;99.90;;;;;;7393208;19;20134;-86
2022/09/27 02:18:55;;;;;;;0.37;0.33;;;13.60;99.90;;;;;;7395099;19;20134;-88
2022/09/27 02:21:31;;;;;;;1.33;0.43;;;13.60;99.90;;;;;;7397485;19;20135;-88
2022/09/27 02:24:02;;;;;;;1.30;0.50;;;13.50;99.90;;;;;;7396131;19;20134;-86
2022/09/27 02:26:41;;;;;;;0.73;0.40;;;13.60;99.90;;;;;;7398222;19;20143;-87
2022/09/27 02:29:10;;;;;;;0.40;0.40;;;13.60;99.90;;;;;;7396061;19;20179;-87
2022/09/27 02:31:36;;;;;;;3.43;0.70;;;13.60;99.90;;;;;;7396312;19;20138;-79
2022/09/27 02:34:09;;;;;;;0.40;0.40;;;13.50;99.90;;;;;;7398379;19;20168;-79
2022/09/27 02:36:36;;;;;;;0.40;0.40;;;13.50;99.90;;;;;;7395437;19;20143;-80
2022/09/27 02:39:03;;;;;;;0.30;0.30;;;13.10;99.90;;;;;;7397859;19;20165;-79
2022/09/27 02:41:28;;;;;;;0.40;0.40;;;13.10;99.90;;;;;;7396729;19;20148;-80
2022/09/27 02:44:04;;;;;;;0.73;0.43;;;13.30;99.90;;;;;;7398378;19;20190;-87
2022/09/27 02:46:36;;;;;;;0.30;0.30;;;13.10;99.90;;;;;;7398265;19;20138;-86
2022/09/27 02:49:25;;;;;;;0.80;0.40;;;12.80;99.90;;;;;;7397246;19;20213;-86
2022/09/27 02:52:23;;;;;;;0.30;0.30;;;12.80;99.90;;;;;;7398592;19;20138;-86
2022/09/27 02:55:13;;;;;;;0.47;0.30;;;12.80;99.90;;;;;;7394648;19;20151;-87
2022/09/27 02:58:07;;;;;;;2.33;0.40;;;12.90;99.90;;;;;;7394687;19;20154;-86
2022/09/27 03:00:55;;;;;;;2.07;0.40;;;12.80;99.90;;;;;;7397559;19;20142;-86
2022/09/27 03:03:34;;;;;;;0.40;0.40;;;12.70;99.90;;;;;;7397563;19;20512;-87
2022/09/27 03:06:07;;;;;;;0.30;0.30;;;12.60;99.90;;;;;;7398135;19;20146;-88
2022/09/27 03:08:33;;;;;;;1.97;0.40;;;12.60;99.90;;;;;;7396808;19;20155;-86
2022/09/27 03:10:59;;;;;;;0.43;0.27;;;12.70;99.90;;;;;;7400000;19;20162;-88
2022/09/27 03:13:25;;;;;;;2.00;0.50;;;12.70;99.90;;;;;;7399113;19;20139;-89
2022/09/27 03:15:52;;;;;;;0.40;0.40;;;12.60;99.90;;;;;;7398286;19;20150;-87
2022/09/27 03:18:17;;;;;;;2.53;0.43;;;12.90;99.90;;;;;;7399004;19;20218;-87
2022/09/27 03:20:43;;;;;;;0.50;0.33;;;12.90;99.90;;;;;;7397031;19;20131;-87
2022/09/27 03:23:09;;;;;;;0.60;0.30;;;12.90;99.90;;;;;;7399437;19;20138;-88
2022/09/27 03:25:35;;;;;;;0.67;0.30;;;12.90;99.90;;;;;;7397406;19;20146;-87
2022/09/27 03:28:01;;;;;;;0.60;0.40;;;13.00;99.90;;;;;;7396665;19;20601;-87
2022/09/27 03:30:26;;;;;;;0.30;0.30;;;13.00;99.90;;;;;;7396456;19;20142;-87
2022/09/27 03:32:52;;;;;;;0.47;0.30;;;12.90;99.90;;;;;;7397682;19;20238;-85
2022/09/27 03:35:18;;;;;;;0.83;0.53;;;12.80;99.90;;;;;;7398148;19;20165;-87
2022/09/27 03:37:46;;;;;;;0.60;0.50;;;12.80;99.90;;;;;;7396447;19;20135;-82
2022/09/27 03:40:12;;;;;;;0.67;0.47;;;12.90;99.90;;;;;;7395382;19;20194;-87
2022/09/27 03:42:40;;;;;;;1.53;0.40;;;12.90;99.90;;;;;;7396375;19;20138;-87
2022/09/27 03:45:06;;;;;;;1.03;0.60;;;12.70;99.90;;;;;;7397489;19;20610;-87
2022/09/27 03:47:32;;;;;;;0.50;0.50;;;12.60;99.90;;;;;;7396280;19;20138;-84
2022/09/27 03:49:58;;;;;;;1.03;0.50;;;12.50;99.90;;;;;;7394491;19;20138;-84
2022/09/27 03:52:23;;;;;;;1.77;0.50;;;12.30;99.90;;;;;;7396036;19;20135;-86
2022/09/27 03:54:49;;;;;;;2.17;0.67;;;12.50;99.90;;;;;;7394416;19;20130;-85
2022/09/27 03:57:15;;;;;;;2.13;0.80;;;12.80;99.90;;;;;;7394870;19;20149;-83
2022/09/27 03:59:41;;;;;;;1.47;0.60;;;12.80;99.90;;;;;;7393851;19;20214;-86
2022/09/27 04:02:07;;;;;;;0.77;0.60;;;12.80;99.90;;;;;;7397040;19;20530;-86
2022/09/27 04:04:32;;;;;;;1.73;0.77;;;12.70;99.90;;;;;;7394911;19;20595;-86
2022/09/27 04:06:58;;;;;;;0.87;0.50;;;12.90;99.90;;;;;;7393872;19;20619;-85
2022/09/27 04:09:24;;;;;;;2.00;0.50;;;12.90;99.90;;;;;;7392664;19;20134;-86
2022/09/27 04:11:50;;;;;;;2.10;0.70;;;12.80;99.90;;;;;;7392820;19;20774;-85
2022/09/27 04:14:16;;;;;;;0.87;0.60;;;12.80;99.90;;;;;;7393940;19;20135;-85
2022/09/27 04:16:41;;;;;;;2.00;0.80;;;12.90;99.90;;;;;;7392778;19;20214;-84
2022/09/27 04:19:07;;;;;;;0.70;0.70;;;12.70;99.90;;;;;;7393748;19;20150;-85
2022/09/27 04:21:34;;;;;;;1.00;0.50;;;12.80;99.90;;;;;;7393380;19;20151;-84
2022/09/27 04:24:00;;;;;;;3.43;0.73;;;12.90;99.90;;;;;;7393495;19;20146;-86
2022/09/27 04:26:26;;;;;;;1.30;0.60;;;13.00;99.90;;;;;;7392381;19;20139;-87
2022/09/27 04:28:52;;;;;;;1.47;1.00;;;13.00;99.90;;;;;;7393423;19;20130;-86
2022/09/27 04:31:19;;;;;;;1.40;0.87;;;13.00;99.90;;;;;;7393566;19;20152;-84
2022/09/27 04:33:45;;;;;;;2.23;0.80;;;12.80;99.90;;;;;;7394082;19;20149;-85
2022/09/27 04:36:26;;;;;;;1.83;1.07;;;12.90;99.90;;;;;;7392581;19;20202;-85
2022/09/27 04:38:57;;;;;;;1.57;1.00;;;12.90;99.90;;;;;;7392881;19;20149;-85
2022/09/27 04:41:24;;;;;;;3.40;0.80;;;12.90;99.90;;;;;;7391150;19;20157;-84
2022/09/27 04:43:54;;;;;;;2.37;0.83;;;13.00;99.90;;;;;;7394776;19;20154;-86
2022/09/27 04:46:21;;;;;;;0.90;0.60;;;12.80;99.90;;;;;;7394486;19;20488;-86
2022/09/27 04:48:47;;;;;;;2.30;0.90;;;12.80;99.90;;;;;;7393000;19;20187;-84
2022/09/27 04:51:17;;;;;;;2.50;0.90;;;12.80;99.90;;;;;;7394562;19;20650;-86
2022/09/27 04:53:43;;;;;;;3.10;0.83;;;13.00;99.90;;;;;;7393826;19;20202;-86
2022/09/27 04:56:11;;;;;;;2.57;0.90;;;12.80;99.90;;;;;;7392922;19;20126;-84
2022/09/27 04:58:37;;;;;;;1.93;0.90;;;12.90;99.90;;;;;;7394737;19;20142;-86
2022/09/27 05:01:03;;;;;;;2.70;0.90;;;12.90;99.90;;;;;;7393940;19;20134;-86
2022/09/27 05:03:30;;;;;;;1.63;0.80;;;12.90;99.90;;;;;;7393166;19;20138;-86
2022/09/27 05:05:56;;;;;;;4.60;1.20;;;12.80;99.90;;;;;;7393742;19;20198;-84
2022/09/27 05:08:23;;;;;;;1.93;0.90;;;12.90;99.90;;;;;;7391946;19;20154;-85
2022/09/27 05:10:49;;;;;;;1.20;0.90;;;12.90;99.90;;;;;;7392992;19;20126;-86
2022/09/27 05:13:15;;;;;;;2.50;0.93;;;13.00;99.90;;;;;;7391617;19;20158;-85
2022/09/27 05:15:41;;;;;;;0.90;0.75;;;13.00;99.90;;;;;;7392270;19;21559;-84
2022/09/27 05:18:08;;;;;;;2.47;1.00;;;13.00;99.90;;;;;;7389138;19;20587;-85
2022/09/27 05:20:36;;;;;;;3.07;0.83;;;12.90;99.90;;;;;;7393449;19;20135;-86
2022/09/27 05:23:03;;;;;;;2.30;0.90;;;12.70;99.90;;;;;;7391868;19;20127;-86
2022/09/27 05:25:30;;;;;;;1.87;0.80;;;12.70;99.90;;;;;;7391177;19;20176;-84
2022/09/27 05:27:57;;;;;;;4.03;0.77;;;12.90;99.90;;;;;;7392821;19;20496;-85
2022/09/27 05:30:26;;;;;;;2.83;0.70;;;13.00;99.90;;;;;;7391009;19;20131;-83
2022/09/27 05:32:52;;;;;;;1.57;0.83;;;13.00;99.90;;;;;;7392720;19;20135;-86
2022/09/27 05:35:20;;;;;;;3.13;1.60;;;13.00;99.90;;;;;;7393155;19;20607;-89
2022/09/27 05:37:58;;;;;;;5.30;1.43;;;12.90;99.90;;;;;;7390337;19;20154;-87
2022/09/27 05:40:24;;;;;;;2.33;0.83;;;12.90;99.90;;;;;;7393399;19;20162;-86
2022/09/27 05:42:52;;;;;;;1.90;0.97;;;12.90;99.90;;;;;;7394689;19;20155;-87
2022/09/27 05:45:19;;;;;;;3.37;1.00;;;12.90;99.90;;;;;;7390867;19;20174;-85
2022/09/27 05:47:52;;;;;;;1.43;0.90;;;13.00;99.90;;;;;;7393361;19;20127;-87
2022/09/27 05:50:18;;;;;;;2.53;0.87;;;13.00;99.90;;;;;;7402970;19;20139;-88
2022/09/27 05:52:44;;;;;;;1.73;0.80;;;13.00;99.90;;;;;;7397988;19;20135;-86
2022/09/27 05:55:10;;;;;;;3.57;0.90;;;12.80;99.90;;;;;;7400594;19;20157;-84
2022/09/27 05:57:36;;;;;;;1.43;0.73;;;12.80;99.90;;;;;;7397369;19;20594;-85
2022/09/27 06:00:02;;;;;;;1.33;0.70;;;12.60;99.90;;;;;;7398305;19;20163;-82
2022/09/27 06:02:29;;;;;;;2.03;0.93;;;12.60;99.90;;;;;;7400097;19;20540;-84
2022/09/27 06:04:55;;;;;;;0.93;0.70;;;12.50;99.90;;;;;;7396908;19;20592;-83
2022/09/27 06:07:21;;;;;;;1.83;0.73;;;12.40;99.90;;;;;;7398844;19;20147;-84
2022/09/27 06:09:48;;;;;;;2.13;1.10;;;12.50;99.90;;;;;;7396748;19;20142;-85
2022/09/27 06:12:14;;;;;;;3.53;1.80;;;12.40;99.90;;;;;;7397733;19;20214;-84
2022/09/27 06:14:40;;;;;;;4.67;3.50;;;12.40;99.90;;;;;;7395412;19;20154;-87
2022/09/27 06:17:05;;;;;;;5.87;4.07;;;12.60;99.90;;;;;;7395668;19;20146;-86
2022/09/27 06:19:31;;;;;;;1.90;0.90;;;12.70;99.90;;;;;;7395874;19;20149;-86
2022/09/27 06:21:57;;;;;;;2.27;0.97;;;12.80;99.90;;;;;;7405986;19;20131;-82
2022/09/27 06:24:23;;;;;;;2.70;0.87;;;12.90;99.90;;;;;;7398466;19;20465;-84
2022/09/27 06:26:49;;;;;;;4.13;2.33;;;13.10;99.90;;;;;;7396433;19;20122;-81
2022/09/27 06:29:14;;;;;;;2.03;0.70;;;13.00;99.90;;;;;;7396030;19;20138;-82
2022/09/27 06:31:40;;;;;;;2.20;1.00;;;12.90;99.90;;;;;;7397181;19;20167;-86
2022/09/27 06:34:07;;;;;;;2.03;0.67;;;12.90;99.90;;;;;;7397081;19;20141;-84
2022/09/27 06:36:33;;;;;;;1.53;0.50;;;12.90;99.90;;;;;;7394555;19;20226;-85
2022/09/27 06:39:00;;;;;;;1.90;0.90;;;12.90;99.90;;;;;;7395415;19;20210;-84
2022/09/27 06:41:26;;;;;;;1.43;0.70;;;13.10;99.90;;;;;;7397057;19;20147;-84
2022/09/27 06:43:52;;;;;;;0.80;0.70;;;13.20;99.90;;;;;;7397817;19;20134;-84
2022/09/27 06:46:17;;;;;;;1.27;0.67;;;13.10;99.90;;;;;;7399046;19;20163;-83
2022/09/27 06:48:43;;;;;;;0.70;0.57;;;13.20;99.90;;;;;;7394519;19;20153;-84
2022/09/27 06:51:09;;;;;;;0.63;0.50;;;12.90;99.90;;;;;;7397293;19;20142;-84
2022/09/27 06:53:35;;;;;;;1.80;0.60;;;12.80;99.90;;;;;;7397158;19;20234;-85
2022/09/27 06:56:01;;;;;;;1.33;0.70;;;12.90;99.90;;;;;;7394738;19;20529;-84
2022/09/27 07:01:12;;;;;;;0.83;0.50;;;12.70;99.90;;;;;;7396907;19;20138;-88
2022/09/27 07:03:42;;;;;;;1.37;0.63;;;12.60;99.90;;;;;;7407516;19;20194;-86
2022/09/27 07:06:19;;;;;;;2.43;0.60;;;12.60;99.90;;;;;;7399536;19;20202;-85
2022/09/27 07:08:51;;;;;;;0.60;0.50;;;12.70;99.90;;;;;;7398982;19;20157;-85
2022/09/27 07:11:17;;;;;;;0.80;0.50;;;12.90;99.90;;;;;;7397632;19;20127;-86
2022/09/27 07:13:43;;;;;;;0.40;0.40;;;12.80;99.90;;;;;;7397979;19;20146;-85
2022/09/27 07:16:15;;;;;;;1.50;0.60;;;12.90;99.90;;;;;;7397534;19;20141;-86
2022/09/27 07:18:41;;;;;;;2.33;0.70;;;13.00;99.90;;;;;;7395784;19;20198;-85
2022/09/27 07:21:11;;;;;;;0.47;0.40;;;12.90;99.90;;;;;;7398340;19;20812;-83
2022/09/27 07:23:37;;;;;;;1.30;0.60;;;13.00;99.90;;;;;;7398500;19;20671;-85
2022/09/27 07:26:04;;;;;;;1.97;0.70;;;12.80;99.90;;;;;;7395683;19;20197;-84
2022/09/27 07:28:30;;;;;;;1.43;0.60;;;13.00;99.90;;;;;;7395892;19;20135;-86
2022/09/27 07:30:56;;;;;;;0.67;0.40;;;13.10;99.90;;;;;;7405705;19;20127;-82
2022/09/27 07:33:24;;;;;;;0.53;0.53;;;13.20;99.90;;;;;;7413410;19;20138;-84
2022/09/27 07:35:50;;;;;;;0.63;0.47;;;13.10;99.90;;;;;;7410170;19;20139;-85
2022/09/27 07:38:16;;;;;;;0.70;0.60;;;12.90;99.90;;;;;;7400496;19;20142;-84
2022/09/27 07:40:42;;;;;;;0.30;0.30;;;12.80;99.90;;;;;;7394942;19;20445;-85
2022/09/27 07:43:08;;;;;;;0.40;0.30;;;12.80;99.90;;;;;;7396204;19;20640;-82
2022/09/27 07:45:35;;;;;;;0.40;0.40;;;12.60;99.90;;;;;;7394569;19;20158;-85
2022/09/27 07:48:05;;;;;;;0.77;0.37;;;12.60;99.90;;;;;;7396352;19;20540;-85
2022/09/27 07:50:30;;;;;;;0.97;0.40;;;12.30;99.90;;;;;;7395158;19;20673;-84
2022/09/27 07:52:57;;;;;;;0.40;0.40;;;12.70;99.90;;;;;;7393864;19;20130;-84
2022/09/27 07:55:23;;;;;;;0.77;0.47;;;12.80;99.90;;;;;;7409465;19;20158;-84
2022/09/27 07:57:49;;;;;;;0.80;0.53;;;13.00;99.90;;;;;;7390959;19;20485;-84
2022/09/27 08:00:18;;;;;;;0.47;0.47;;;13.20;99.90;;;;;;7392900;19;20142;-85
2022/09/27 08:02:45;;;;;;;1.30;0.63;;;13.40;99.90;;;;;;7393280;19;20177;-85
2022/09/27 08:05:12;;;;;;;1.00;0.70;;;13.40;99.90;;;;;;7395144;19;20134;-85
2022/09/27 08:07:39;;;;;;;5.37;3.50;;;13.30;99.90;;;;;;7394370;19;20139;-84
2022/09/27 08:10:07;;;;;;;0.93;0.73;;;13.40;99.90;;;;;;7394922;19;20619;-86
2022/09/27 08:12:33;;;;;;;2.87;2.07;;;13.20;99.90;;;;;;7396887;19;20513;-85
2022/09/27 08:15:00;;;;;;;1.40;0.90;;;13.30;99.90;;;;;;7395505;19;20198;-84
2022/09/27 08:17:31;;;;;;;0.80;0.50;;;13.20;99.90;;;;;;7392561;19;20588;-86
2022/09/27 08:19:57;;;;;;;1.60;0.90;;;12.90;99.90;;;;;;7394319;19;20154;-86
2022/09/27 08:22:24;;;;;;;0.70;0.60;;;13.00;99.90;;;;;;7395630;19;20164;-84
2022/09/27 08:24:50;;;;;;;1.48;0.70;;;13.00;99.90;;;;;;7393200;19;20163;-85
2022/09/27 08:27:16;;;;;;;0.70;0.60;;;13.20;99.90;;;;;;7392236;19;20130;-84
2022/09/27 08:29:42;;;;;;;3.63;0.60;;;13.30;99.90;;;;;;7393309;19;20137;-88
2022/09/27 08:32:10;;;;;;;0.63;0.50;;;13.50;99.90;;;;;;7403039;19;20533;-86
2022/09/27 08:34:36;;;;;;;0.80;0.60;;;13.50;99.90;;;;;;7392842;19;20139;-85
2022/09/27 08:37:02;;;;;;;0.47;0.47;;;13.70;99.90;;;;;;7390714;19;20135;-84
2022/09/27 08:39:28;;;;;;;2.47;0.60;;;13.90;99.90;;;;;;7391973;19;20591;-84
2022/09/27 08:41:56;;;;;;;0.90;0.60;;;13.70;99.90;;;;;;7391402;19;20191;-84
2022/09/27 08:44:25;;;;;;;6.82;4.05;;;13.80;99.90;;;;;;7392886;19;20138;-85
2022/09/27 08:47:06;;;;;;;0.97;0.87;;;13.70;99.90;;;;;;7392078;19;20154;-84
2022/09/27 08:49:36;;;;;;;0.97;0.43;;;13.80;99.90;;;;;;7391321;19;20154;-83
2022/09/27 08:52:04;;;;;;;1.10;0.80;;;13.90;99.90;;;;;;7391489;19;20222;-84
2022/09/27 08:54:31;;;;;;;1.80;1.20;;;13.60;99.90;;;;;;7400429;19;20189;-84
2022/09/27 08:57:02;;;;;;;1.50;1.03;;;13.60;99.90;;;;;;7396427;19;20619;-83
2022/09/27 08:59:35;;;;;;;0.80;0.73;;;13.60;99.90;;;;;;7394002;19;20146;-83
2022/09/27 09:02:03;;;;;;;1.90;1.03;;;13.70;99.90;;;;;;7391636;19;20158;-83
2022/09/27 09:04:34;;;;;;;3.90;2.10;;;13.90;99.90;;;;;;7402845;19;20146;-86
2022/09/27 09:07:45;;;;;;;2.60;1.30;;;13.70;99.90;;;;;;7395259;19;20138;-83
2022/09/27 09:14:00;;;;;;;1.10;0.67;;;13.20;99.90;;;;;;7389986;19;20180;-84
2022/09/27 09:16:51;;;;;;;1.50;0.73;;;13.20;99.90;;;;;;7388750;19;20474;-83
2022/09/27 09:19:33;;;;;;;1.03;0.63;;;13.50;99.90;;;;;;7390283;19;20151;-83
2022/09/27 09:22:07;;;;;;;1.60;0.80;;;13.60;99.90;;;;;;7389489;19;20143;-84
2022/09/27 09:24:45;;;;;;;0.95;0.60;;;13.40;99.90;;;;;;7401538;19;20177;-83
2022/09/27 09:27:29;;;;;;;2.47;0.73;;;13.50;99.90;;;;;;7407431;19;20135;-84
2022/09/27 09:30:01;;;;;;;0.88;0.50;;;13.60;99.90;;;;;;7397155;19;20223;-83
2022/09/27 09:32:52;;;;;;;0.60;0.53;;;13.90;99.90;;;;;;7399446;19;20134;-84
2022/09/27 09:35:28;;;;;;;1.40;0.67;;;13.80;99.90;;;;;;7397362;19;20142;-84
2022/09/27 09:38:09;;;;;;;1.27;0.80;;;14.00;99.90;;;;;;7394922;19;20590;-85
2022/09/27 09:40:44;;;;;;;0.95;0.60;;;13.90;99.90;;;;;;7408074;19;20615;-84
2022/09/27 09:43:30;;;;;;;0.90;0.60;;;13.90;99.90;;;;;;7397919;19;20138;-80
2022/09/27 09:46:09;;;;;;;1.92;0.60;;;13.60;99.90;;;;;;7397019;19;20555;-80
2022/09/27 09:48:45;;;;;;;0.68;0.68;;;13.80;99.90;;;;;;7398051;19;20126;-86
2022/09/27 09:51:21;;;;;;;1.92;0.75;;;13.80;99.90;;;;;;7397698;19;20149;-84
2022/09/27 09:54:07;;;;;;;0.60;0.60;;;14.20;99.90;;;;;;7397063;19;20176;-82
2022/09/27 09:56:43;;;;;;;1.45;0.73;;;14.50;99.90;;;;;;7397683;19;20134;-83
2022/09/27 09:59:26;;;;;;;1.35;1.00;;;14.80;99.90;;;;;;7394770;19;20139;-82
2022/09/27 10:01:59;;;;;;;0.93;0.73;;;15.00;99.90;;;;;;7397710;19;20614;-81
2022/09/27 10:04:28;;;;;;;2.22;0.82;;;15.00;99.90;;;;;;7399427;19;20616;-83
2022/09/27 10:06:57;;;;;;;1.20;0.63;;;14.90;99.90;;;;;;7395544;19;20153;-82
2022/09/27 10:09:25;;;;;;;2.17;0.68;;;14.80;99.90;;;;;;7396918;19;20241;-82
2022/09/27 10:11:51;;;;;;;0.88;0.60;;;14.70;99.90;;;;;;7395267;19;20138;-82
2022/09/27 10:14:19;;;;;;;1.13;0.80;;;14.60;99.90;;;;;;7395562;19;20214;-83
2022/09/27 10:16:49;;;;;;;4.03;0.68;;;14.60;99.90;;;;;;7394177;19;20154;-83
2022/09/27 10:19:19;;;;;;;1.23;0.80;;;14.60;99.90;;;;;;7395011;19;20143;-82
2022/09/27 10:21:48;;;;;;;1.15;0.88;;;14.90;99.90;;;;;;7394957;19;20631;-84
2022/09/27 10:24:20;;;;;;;3.10;0.80;;;14.90;99.90;;;;;;7403804;19;20203;-83
2022/09/27 10:26:49;;;;;;;1.00;0.70;;;14.90;99.90;;;;;;7396213;19;20142;-83
2022/09/27 10:29:16;;;;;;;1.45;0.80;;;14.60;99.90;;;;;;7395955;19;20145;-82
2022/09/27 10:31:46;;;;;;;2.92;1.10;;;14.70;99.90;;;;;;7395858;19;20157;-83
2022/09/27 10:34:44;;;;;;;2.25;0.80;;;14.50;99.90;;;;;;7396013;19;20134;-83
2022/09/27 10:37:17;;;;;;;2.67;1.00;;;14.30;99.90;;;;;;7391660;19;20518;-84
2022/09/27 10:39:46;;;;;;;1.73;0.77;;;14.20;99.90;;;;;;7405205;19;20146;-82
2022/09/27 10:42:33;;;;;;;0.60;0.55;;;14.20;99.90;;;;;;7396413;19;20165;-83
2022/09/27 10:45:23;;;;;;;1.73;0.70;;;14.20;99.90;;;;;;7393386;19;20161;-83
2022/09/27 10:47:49;;;;;;;2.55;0.68;;;14.30;99.90;;;;;;7396678;19;20624;-83
2022/09/27 10:50:22;;;;;;;1.83;0.63;;;14.40;99.90;;;;;;7395687;19;20138;-82
2022/09/27 10:52:58;;;;;;;1.90;0.80;;;14.30;99.90;;;;;;7397730;19;20609;-83
2022/09/27 10:55:26;;;;;;;2.03;0.80;;;14.40;99.90;;;;;;7401273;19;20130;-82
2022/09/27 10:57:54;;;;;;;1.45;0.70;;;14.50;99.90;;;;;;7399271;19;20139;-83
2022/09/27 11:00:28;;;;;;;3.65;0.95;;;14.40;99.90;;;;;;7393320;19;20154;-82
2022/09/27 11:03:03;;;;;;;1.00;0.70;;;14.70;99.90;;;;;;7393244;19;20134;-85
2022/09/27 11:05:33;;;;;;;1.05;0.68;;;14.70;99.90;;;;;;7396689;19;20154;-82
2022/09/27 11:08:02;;;;;;;1.38;0.75;;;14.70;99.90;;;;;;7393652;19;20151;-83
2022/09/27 11:10:31;;;;;;;2.05;0.68;;;14.50;99.90;;;;;;7407188;19;20147;-83
2022/09/27 11:13:14;;;;;;;1.92;0.85;;;14.70;99.90;;;;;;7395028;19;20146;-83
2022/09/27 11:15:49;;;;;;;2.83;1.38;;;14.80;99.90;;;;;;7393192;19;20143;-83
2022/09/27 11:18:31;;;;;;;3.60;1.90;;;14.50;99.90;;;;;;7391138;19;20138;-83
2022/09/27 11:21:33;;;;;;;2.08;1.50;;;14.50;99.90;;;;;;7394794;19;20138;-84
2022/09/27 11:24:30;;;;;;;4.85;1.00;;;14.50;99.90;;;;;;7393363;19;20150;-84
2022/09/27 11:27:04;;;;;;;1.75;0.82;;;14.60;99.90;;;;;;7395636;19;20151;-84
2022/09/27 11:30:13;;;;;;;1.42;0.73;;;14.70;99.90;;;;;;7392363;19;20142;-82
2022/09/27 11:32:48;;;;;;;2.72;1.02;;;14.70;99.90;;;;;;7389949;19;20142;-83
2022/09/27 11:35:32;;;;;;;2.35;0.90;;;14.60;99.90;;;;;;7394367;19;20154;-82
2022/09/27 11:38:11;;;;;;;1.25;0.70;;;14.70;99.90;;;;;;7392454;19;20142;-82
2022/09/27 11:40:46;;;;;;;3.80;0.77;;;14.60;99.90;;;;;;7394649;19;20141;-82
2022/09/27 11:43:46;;;;;;;0.65;0.32;;;14.70;99.90;;;;;;7394028;19;20160;-83
2022/09/27 11:46:31;;;;;;;1.35;0.60;;;14.70;99.90;;;;;;7393966;19;20135;-85
2022/09/27 11:49:28;;;;;;;0.52;0.50;;;14.50;99.90;;;;;;7394427;19;20145;-83
2022/09/27 11:52:00;;;;;;;3.13;0.60;;;14.60;99.90;;;;;;7393814;19;20161;-83
2022/09/27 11:54:31;;;;;;;1.23;0.50;;;14.60;99.90;;;;;;7399453;19;20145;-84
2022/09/27 11:57:25;;;;;;;1.70;0.70;;;14.40;99.90;;;;;;7393017;19;20134;-82
2022/09/27 12:00:09;;;;;;;0.98;0.40;;;14.50;99.90;;;;;;7392411;19;20146;-84
2022/09/27 12:02:44;;;;;;;2.00;1.13;;;14.40;99.90;;;;;;7395234;19;20161;-82
2022/09/27 12:05:34;;;;;;;1.65;0.70;;;14.30;99.90;;;;;;7394311;19;20725;-83
2022/09/27 12:08:21;;;;;;;0.35;0.30;;;14.40;99.90;;;;;;7392772;19;20145;-82
2022/09/27 12:10:52;;;;;;;0.60;0.40;;;14.30;99.90;;;;;;7393908;19;20173;-83
2022/09/27 12:13:38;;;;;;;0.60;0.40;;;13.80;99.90;;;;;;7392664;19;20587;-83
2022/09/27 12:16:05;;;;;;;0.30;0.30;;;13.80;99.90;;;;;;7392950;19;20566;-84
2022/09/27 12:18:37;;;;;;;0.57;0.50;;;13.20;99.90;;;;;;7390659;19;20154;-80
2022/09/27 12:21:07;;;;;;;1.07;0.40;;;12.70;99.90;;;;;;7390168;19;20135;-83
2022/09/27 12:23:46;;;;;;;1.00;0.40;;;12.50;99.90;;;;;;7392808;19;20154;-83
2022/09/27 12:26:30;;;;;;;1.13;0.40;;;12.60;99.90;;;;;;7391108;19;20975;-86
2022/09/27 12:29:01;;;;;;;2.30;0.50;;;12.50;99.90;;;;;;7393454;19;20146;-84
2022/09/27 12:31:42;;;;;;;1.00;0.50;;;12.50;99.90;;;;;;7393151;19;20139;-86
2022/09/27 12:34:18;;;;;;;0.30;0.30;;;12.50;99.90;;;;;;7393163;19;20166;-85
2022/09/27 12:36:54;;;;;;;0.57;0.53;;;12.70;99.90;;;;;;7391581;19;20792;-84
2022/09/27 12:39:45;;;;;;;0.57;0.40;;;12.70;99.90;;;;;;7390131;19;20146;-82
2022/09/27 12:42:24;;;;;;;0.57;0.30;;;12.80;99.90;;;;;;7393633;19;20161;-84
2022/09/27 12:44:50;;;;;;;1.50;0.40;;;12.80;99.90;;;;;;7392454;19;20138;-85
2022/09/27 12:47:42;;;;;;;0.87;0.43;;;12.70;99.90;;;;;;7390803;19;20150;-85
2022/09/27 12:50:24;;;;;;;0.77;0.33;;;12.50;99.90;;;;;;7390181;19;20165;-86
2022/09/27 12:53:04;;;;;;;0.73;0.52;;;12.60;99.90;;;;;;7391939;19;20142;-84
2022/09/27 12:56:04;;;;;;;1.80;0.40;;;12.90;99.90;;;;;;7391087;19;20135;-85
2022/09/27 12:58:55;;;;;;;0.53;0.50;;;13.10;99.90;;;;;;7388263;19;20154;-85
2022/09/27 13:02:15;;;;;;;0.70;0.37;;;13.30;99.90;;;;;;7391520;19;20147;-85
2022/09/27 13:05:07;;;;;;;0.90;0.30;;;13.50;99.90;;;;;;7394571;19;20162;-83
2022/09/27 13:07:51;;;;;;;0.50;0.50;;;13.50;99.90;;;;;;7398894;19;20162;-83
2022/09/27 13:10:32;;;;;;;1.50;0.60;;;13.40;99.90;;;;;;7400502;19;20149;-84
2022/09/27 13:13:00;;;;;;;0.53;0.47;;;13.50;99.90;;;;;;7396459;19;20620;-84
2022/09/27 13:15:30;;;;;;;3.10;0.40;;;13.60;99.90;;;;;;7398114;19;20632;-85
2022/09/27 13:18:02;;;;;;;1.20;0.50;;;13.60;99.90;;;;;;7396823;19;20143;-84
2022/09/27 13:20:34;;;;;;;0.83;0.40;;;13.80;99.90;;;;;;7397607;19;20150;-84
2022/09/27 13:23:18;;;;;;;2.80;0.40;;;13.90;99.90;;;;;;7397385;19;20476;-82